KIV weather

Chişinău International Airport
Chişinău, Chişinău, Moldova

Public forecast

Using degrees Celsius for public forecast. Weather courtesy of forecast.io.

Current aviation weather report (METAR) for Chişinău International Airport

Retrieved 2019/10/19 03:30 UTC (22 minutes ago):

LUKK 190330Z 13004KT 100V170 0300 0250S R26/0275N FG VV001 07/06 Q1019 R26/CLRD// NOSIG

Aviation forecast (TAF) for Chişinău International Airport

Retrieved 2019-10-19 00:30 UTC (3 hours ago):

TAF TAF LUKK 182325Z 1900/1924 VRB04KT 2400 BR NSC TEMPO 1900/1901 0500 FG VV/// BECMG 1901/1903 0300 FG VV/// TEMPO 1907/1908 0800 BKN003 BECMG 1908/1910 14006KT CAVOK TEMPO 1920/1924 3000 BR